Observation data for Tatum on 02/13/2018      Previous  Date  Next       Current Mesonet Observations  Soil Data  Daily Summary Page  Observations in Plain Language
KTAT 130600Z 13005KT M03/M10 A302 RMK A01 T10331098  RH  061%=      5-min Rain = 0
KTAT 130605Z 13004KT M03/M10 A302 RMK A01 T10331096  RH  061%=      5-min Rain = 0
KTAT 130610Z 12004KT M03/M10 A302 RMK A01 T10311095  RH  061%=      5-min Rain = 0
KTAT 130615Z 10004KT M03/M10 A302 RMK A01 T10281095  RH  060%=      5-min Rain = 0
KTAT 130620Z 10004KT M03/M10 A302 RMK A01 T10261096  RH  059%=      5-min Rain = 0
KTAT 130625Z 10005KT M03/M10 A302 RMK A01 T10251097  RH  058%=      5-min Rain = 0
KTAT 130630Z 11005KT M03/M10 A302 RMK A01 T10291100  RH  058%=      5-min Rain = 0
KTAT 130635Z 11005KT M03/M10 A302 RMK A01 T10321101  RH  059%=      5-min Rain = 0
KTAT 130640Z 11006KT M04/M10 A302 RMK A01 T10361101  RH  060%=      5-min Rain = 0
KTAT 130645Z 11005KT M04/M10 A302 RMK A01 T10361099  RH  061%=      5-min Rain = 0
KTAT 130650Z 09004KT M04/M10 A302 RMK A01 T10361100  RH  061%=      5-min Rain = 0
KTAT 130655Z 08004KT M04/M10 A302 RMK A01 T10361101  RH  061%=      5-min Rain = 0
KTAT 130700Z 09004KT M04/M10 A302 RMK A01 T10351100  RH  060%=      5-min Rain = 0
KTAT 130705Z 10003KT M04/M10 A3021 RMK A01 T10371104  RH  060%=      5-min Rain = 0
KTAT 130710Z 09004KT M04/M10 A3021 RMK A01 T10351098  RH  061%=      5-min Rain = 0
KTAT 130715Z 08004KT M04/M10 A3021 RMK A01 T10351102  RH  059%=      5-min Rain = 0
KTAT 130720Z 07004KT M04/M11 A3021 RMK A01 T10401105  RH  061%=      5-min Rain = 0
KTAT 130725Z 06003KT M05/M11 A3022 RMK A01 T10451106  RH  062%=      5-min Rain = 0
KTAT 130730Z 07002KT M05/M10 A3022 RMK A01 T10491104  RH  065%=      5-min Rain = 0
KTAT 130735Z 08003KT M05/M10 A3022 RMK A01 T10451098  RH  066%=      5-min Rain = 0
KTAT 130740Z 08003KT M04/M10 A3022 RMK A01 T10391099  RH  063%=      5-min Rain = 0
KTAT 130745Z 07002KT M04/M10 A3022 RMK A01 T10431104  RH  062%=      5-min Rain = 0
KTAT 130750Z 05002KT M05/M11 A3022 RMK A01 T10501109  RH  063%=      5-min Rain = 0
KTAT 130755Z 04003KT M06/M11 A3022 RMK A01 T10571109  RH  066%=      5-min Rain = 0
KTAT 130800Z 03004KT M06/M11 A3022 RMK A01 T10571109  RH  066%=      5-min Rain = 0
KTAT 130805Z 04004KT M06/M11 A3022 RMK A01 T10581109  RH  067%=      5-min Rain = 0
KTAT 130810Z 04004KT M06/M11 A3022 RMK A01 T10571108  RH  067%=      5-min Rain = 0
KTAT 130815Z 05004KT M06/M11 A3022 RMK A01 T10551108  RH  066%=      5-min Rain = 0
KTAT 130820Z 04004KT M06/M11 A3022 RMK A01 T10551109  RH  065%=      5-min Rain = 0
KTAT 130825Z 05005KT M05/M11 A3022 RMK A01 T10521106  RH  065%=      5-min Rain = 0
KTAT 130830Z 06005KT M05/M11 A3022 RMK A01 T10501107  RH  064%=      5-min Rain = 0
KTAT 130835Z 05005KT M05/M11 A3022 RMK A01 T10491108  RH  063%=      5-min Rain = 0
KTAT 130840Z 03006KT M05/M11 A3022 RMK A01 T10511109  RH  064%=      5-min Rain = 0
KTAT 130845Z 02006KT M06/M11 A3022 RMK A01 T10561109  RH  066%=      5-min Rain = 0
KTAT 130850Z 02004KT M06/M11 A3022 RMK A01 T10561107  RH  067%=      5-min Rain = 0
KTAT 130855Z 03004KT M05/M11 A3021 RMK A01 T10531107  RH  066%=      5-min Rain = 0
KTAT 130900Z 36006KT M06/M11 A3022 RMK A01 T10591110  RH  067%=      5-min Rain = 0
KTAT 130905Z 36006KT M06/M11 A3022 RMK A01 T10601106  RH  070%=      5-min Rain = 0
KTAT 130910Z 35006KT M06/M11 A3022 RMK A01 T10591107  RH  069%=      5-min Rain = 0
KTAT 130915Z 02005KT M06/M11 A3022 RMK A01 T10601106  RH  069%=      5-min Rain = 0
KTAT 130920Z 04005KT M06/M11 A3022 RMK A01 T10581105  RH  069%=      5-min Rain = 0
KTAT 130925Z 05005KT M05/M10 A3022 RMK A01 T10541104  RH  068%=      5-min Rain = 0
KTAT 130930Z 06005KT M05/M11 A3022 RMK A01 T10521105  RH  066%=      5-min Rain = 0
KTAT 130935Z 05004KT M05/M11 A3022 RMK A01 T10511106  RH  065%=      5-min Rain = 0
KTAT 130940Z 06004KT M05/M11 A3021 RMK A01 T10531107  RH  065%=      5-min Rain = 0
KTAT 130945Z 06004KT M05/M11 A3021 RMK A01 T10541109  RH  065%=      5-min Rain = 0
KTAT 130950Z 06004KT M06/M11 A3021 RMK A01 T10571110  RH  066%=      5-min Rain = 0
KTAT 130955Z 06003KT M06/M11 A3021 RMK A01 T10581110  RH  067%=      5-min Rain = 0
KTAT 131000Z 05003KT M06/M11 A3021 RMK A01 T10601109  RH  068%=      5-min Rain = 0
KTAT 131005Z 05004KT M06/M11 A3021 RMK A01 T10591106  RH  069%=      5-min Rain = 0
KTAT 131010Z 04004KT M06/M11 A3021 RMK A01 T10581108  RH  068%=      5-min Rain = 0
KTAT 131015Z 04003KT M06/M11 A3021 RMK A01 T10611111  RH  067%=      5-min Rain = 0
KTAT 131020Z 04004KT M06/M11 A3021 RMK A01 T10641109  RH  070%=      5-min Rain = 0
KTAT 131025Z 05004KT M06/M11 A3021 RMK A01 T10631109  RH  070%=      5-min Rain = 0
KTAT 131030Z 06004KT M06/M11 A302 RMK A01 T10621108  RH  070%=      5-min Rain = 0
KTAT 131035Z 06004KT M06/M11 A302 RMK A01 T10621110  RH  068%=      5-min Rain = 0
KTAT 131040Z 07004KT M06/M11 A302 RMK A01 T10621110  RH  068%=      5-min Rain = 0
KTAT 131045Z 08004KT M06/M11 A3021 RMK A01 T10631114  RH  067%=      5-min Rain = 0
KTAT 131050Z 09004KT M07/M11 A3021 RMK A01 T10651112  RH  069%=      5-min Rain = 0
KTAT 131055Z 10005KT M06/M11 A3021 RMK A01 T10631110  RH  069%=      5-min Rain = 0
KTAT 131100Z 10007KT M06/M11 A3021 RMK A01 T10641110  RH  070%=      5-min Rain = 0
KTAT 131105Z 10007KT M06/M11 A3021 RMK A01 T10621106  RH  071%=      5-min Rain = 0
KTAT 131110Z 11007KT M06/M10 A302 RMK A01 T10611103  RH  072%=      5-min Rain = 0
KTAT 131115Z 11005KT M06/M10 A3021 RMK A01 T10571101  RH  071%=      5-min Rain = 0
KTAT 131120Z 10004KT M06/M10 A3021 RMK A01 T10551101  RH  070%=      5-min Rain = 0
KTAT 131125Z 09001KT M06/M10 A3021 RMK A01 T10551102  RH  069%=      5-min Rain = 0
KTAT 131130Z 01000KT M06/M11 A3021 RMK A01 T10571107  RH  067%=      5-min Rain = 0
KTAT 131135Z 01002KT M06/M11 A3021 RMK A01 T10621107  RH  070%=      5-min Rain = 0
KTAT 131140Z 01002KT M06/M11 A3022 RMK A01 T10601105  RH  070%=      5-min Rain = 0
KTAT 131145Z 01002KT M06/M11 A3022 RMK A01 T10591105  RH  070%=      5-min Rain = 0
KTAT 131150Z 01003KT M06/M11 A3022 RMK A01 T10581105  RH  069%=      5-min Rain = 0
KTAT 131155Z 01003KT M06/M11 A3022 RMK A01 T10581105  RH  069%=      5-min Rain = 0
KTAT 131200Z 01004KT M06/M11 A3022 RMK A01 T10601107  RH  069%=      5-min Rain = 0
KTAT 131205Z 02003KT M06/M11 A3022 RMK A01 T10611108  RH  069%=      5-min Rain = 0
KTAT 131210Z 02003KT M06/M11 A3022 RMK A01 T10601109  RH  068%=      5-min Rain = 0
KTAT 131215Z 02002KT M06/M11 A3022 RMK A01 T10601110  RH  067%=      5-min Rain = 0
KTAT 131220Z 03002KT M06/M11 A3022 RMK A01 T10601110  RH  067%=      5-min Rain = 0
KTAT 131225Z 04002KT M06/M11 A3022 RMK A01 T10611110  RH  068%=      5-min Rain = 0
KTAT 131230Z 04003KT M06/M11 A3022 RMK A01 T10621108  RH  069%=      5-min Rain = 0
KTAT 131235Z 09006KT M06/M11 A3022 RMK A01 T10611106  RH  070%=      5-min Rain = 0
KTAT 131240Z 09005KT M06/M11 A3022 RMK A01 T10601105  RH  070%=      5-min Rain = 0
KTAT 131245Z 08004KT M06/M10 A3022 RMK A01 T10581103  RH  070%=      5-min Rain = 0
KTAT 131250Z 08004KT M05/M10 A3023 RMK A01 T10531102  RH  069%=      5-min Rain = 0
KTAT 131255Z 08004KT M05/M10 A3023 RMK A01 T10491101  RH  067%=      5-min Rain = 0
KTAT 131300Z 08003KT M05/M10 A3023 RMK A01 T10481103  RH  065%=      5-min Rain = 0
KTAT 131305Z 09004KT M05/M10 A3023 RMK A01 T10501103  RH  066%=      5-min Rain = 0
KTAT 131310Z 08004KT M05/M10 A3023 RMK A01 T10521104  RH  067%=      5-min Rain = 0
KTAT 131315Z 08004KT M05/M10 A3023 RMK A01 T10531104  RH  067%=      5-min Rain = 0
KTAT 131320Z 10004KT M05/M10 A3023 RMK A01 T10531103  RH  067%=      5-min Rain = 0
KTAT 131325Z 10004KT M05/M10 A3023 RMK A01 T10531104  RH  067%=      5-min Rain = 0
KTAT 131330Z 10004KT M05/M11 A3024 RMK A01 T10541105  RH  067%=      5-min Rain = 0
KTAT 131335Z 11003KT M05/M10 A3024 RMK A01 T10541104  RH  067%=      5-min Rain = 0
KTAT 131340Z 13002KT M05/M11 A3025 RMK A01 T10531107  RH  066%=      5-min Rain = 0
KTAT 131345Z 14002KT M06/M11 A3025 RMK A01 T10591111  RH  067%=      5-min Rain = 0
KTAT 131350Z 13003KT M06/M11 A3025 RMK A01 T10601107  RH  069%=      5-min Rain = 0
KTAT 131355Z 12003KT M06/M11 A3025 RMK A01 T10561106  RH  068%=      5-min Rain = 0
KTAT 131400Z 12003KT M06/M11 A3025 RMK A01 T10551107  RH  066%=      5-min Rain = 0
KTAT 131405Z 12003KT M06/M11 A3025 RMK A01 T10551108  RH  066%=      5-min Rain = 0
KTAT 131410Z 14002KT M06/M11 A3025 RMK A01 T10561106  RH  067%=      5-min Rain = 0
KTAT 131415Z 16003KT M05/M10 A3025 RMK A01 T10521102  RH  068%=      5-min Rain = 0
KTAT 131420Z 17003KT M05/M10 A3025 RMK A01 T10511102  RH  067%=      5-min Rain = 0
KTAT 131425Z 18003KT M05/M10 A3025 RMK A01 T10511102  RH  067%=      5-min Rain = 0
KTAT 131430Z 18004KT M05/M10 A3026 RMK A01 T10511102  RH  067%=      5-min Rain = 0
KTAT 131435Z 19003KT M05/M10 A3026 RMK A01 T10511102  RH  068%=      5-min Rain = 0
KTAT 131440Z 20004KT M05/M10 A3026 RMK A01 T10491099  RH  067%=      5-min Rain = 0
KTAT 131445Z 20003KT M04/M10 A3026 RMK A01 T10441097  RH  066%=      5-min Rain = 0
KTAT 131450Z 19002KT M04/M10 A3026 RMK A01 T10381095  RH  064%=      5-min Rain = 0
KTAT 131455Z 26001KT M03/M09 A3026 RMK A01 T10301092  RH  062%=      5-min Rain = 0
KTAT 131500Z 19001KT M02/M09 A3027 RMK A01 T10201088  RH  059%=      5-min Rain = 0
KTAT 131505Z 16004KT M02/M09 A3027 RMK A01 T10161087  RH  058%=      5-min Rain = 0
KTAT 131510Z 17004KT M01/M08 A3027 RMK A01 T10121082  RH  059%=      5-min Rain = 0
KTAT 131515Z 17005KT M01/M07 A3028 RMK A01 T10051074  RH  059%=      5-min Rain = 0
KTAT 131520Z 17005KT 00/M07 A3028 RMK A01 T00041074  RH  056%=      5-min Rain = 0
KTAT 131525Z 16003KT 00/M08 A3028 RMK A01 T00011076  RH  056%=      5-min Rain = 0
KTAT 131530Z 16002KT 00/M08 A3029 RMK A01 T00011075  RH  056%=      5-min Rain = 0
KTAT 131535Z 16002KT 00/M07 A3029 RMK A01 T00041073  RH  056%=      5-min Rain = 0
KTAT 131540Z 21001KT 00/M07 A3029 RMK A01 T00041073  RH  056%=      5-min Rain = 0
KTAT 131545Z 26001KT 01/M07 A303 RMK A01 T00051072  RH  056%=      5-min Rain = 0
KTAT 131550Z 25001KT 01/M07 A303 RMK A01 T00121067  RH  056%=      5-min Rain = 0
KTAT 131555Z 20003KT 02/M06 A303 RMK A01 T00221063  RH  053%=      5-min Rain = 0
KTAT 131600Z 19004KT 03/M06 A303 RMK A01 T00291056  RH  054%=      5-min Rain = 0
KTAT 131605Z 19005KT 04/M05 A303 RMK A01 T00371052  RH  052%=      5-min Rain = 0
KTAT 131610Z 20005KT 04/M05 A303 RMK A01 T00431051  RH  050%=      5-min Rain = 0
KTAT 131615Z 20005KT 05/M05 A303 RMK A01 T00471050  RH  050%=      5-min Rain = 0
KTAT 131620Z 19005KT 05/M05 A303 RMK A01 T00511045  RH  050%=      5-min Rain = 0
KTAT 131625Z 21004KT 05/M05 A3031 RMK A01 T00541045  RH  049%=      5-min Rain = 0
KTAT 131630Z 21004KT 05/M05 A303 RMK A01 T00541046  RH  049%=      5-min Rain = 0
KTAT 131635Z 21004KT 06/M05 A303 RMK A01 T00601045  RH  047%=      5-min Rain = 0
KTAT 131640Z 19004KT 06/M05 A303 RMK A01 T00621045  RH  046%=      5-min Rain = 0
KTAT 131645Z 19003KT 07/M04 A303 RMK A01 T00691044  RH  045%=      5-min Rain = 0
KTAT 131650Z 21004KT 07/M04 A303 RMK A01 T00721043  RH  044%=      5-min Rain = 0
KTAT 131655Z 20005KT 07/M04 A303 RMK A01 T00731043  RH  044%=      5-min Rain = 0
KTAT 131700Z 19005KT 08/M04 A303 RMK A01 T00761042  RH  043%=      5-min Rain = 0
KTAT 131705Z 20007KT 08/M04 A303 RMK A01 T00801042  RH  042%=      5-min Rain = 0
KTAT 131710Z 20005KT 08/M04 A303 RMK A01 T00841041  RH  041%=      5-min Rain = 0
KTAT 131715Z 18005KT 09/M04 A3029 RMK A01 T00871041  RH  040%=      5-min Rain = 0
KTAT 131720Z 18005KT 09/M04 A3029 RMK A01 T00931041  RH  039%=      5-min Rain = 0
KTAT 131725Z 19004KT 09/M04 A3029 RMK A01 T00941041  RH  039%=      5-min Rain = 0
KTAT 131730Z 20005KT 10/M04 A3028 RMK A01 T00951042  RH  038%=      5-min Rain = 0
KTAT 131735Z 18005KT 10/M04 A3028 RMK A01 T00951041  RH  038%=      5-min Rain = 0
KTAT 131740Z 19006KT 10/M04 A3028 RMK A01 T01041042  RH  036%=      5-min Rain = 0
KTAT 131745Z 17006KT 11/M04 A3028 RMK A01 T01071042  RH  035%=      5-min Rain = 0
KTAT 131750Z 19006KT 11/M04 A3028 RMK A01 T01111042  RH  034%=      5-min Rain = 0
KTAT 131755Z 19005KT 11/M04 A3028 RMK A01 T01141041  RH  034%=      5-min Rain = 0
KTAT 131800Z 17005KT 12/M04 A3028 RMK A01 T01151042  RH  033%=      5-min Rain = 0
KTAT 131805Z 18006KT 12/M04 A3027 RMK A01 T01181041  RH  033%=      5-min Rain = 0
KTAT 131810Z 19005KT 12/M04 A3027 RMK A01 T01211040  RH  032%=      5-min Rain = 0
KTAT 131815Z 19005KT 13/M04 A3027 RMK A01 T01261041  RH  031%=      5-min Rain = 0
KTAT 131820Z 20005KT 13/M04 A3027 RMK A01 T01271040  RH  031%=      5-min Rain = 0
KTAT 131825Z 19007KT 13/M04 A3027 RMK A01 T01291041  RH  031%=      5-min Rain = 0
KTAT 131830Z 18007KT 13/M04 A3027 RMK A01 T01301040  RH  031%=      5-min Rain = 0
KTAT 131835Z 16007KT 13/M04 A3027 RMK A01 T01311040  RH  030%=      5-min Rain = 0
KTAT 131840Z 16008KT 13/M04 A3027 RMK A01 T01341039  RH  030%=      5-min Rain = 0
KTAT 131845Z 17008KT 14/M04 A3027 RMK A01 T01391038  RH  029%=      5-min Rain = 0
KTAT 131850Z 16006KT 15/M04 A3027 RMK A01 T01451038  RH  028%=      5-min Rain = 0
KTAT 131855Z 14006KT 14/M04 A3027 RMK A01 T01381041  RH  029%=      5-min Rain = 0
KTAT 131900Z 17007G12KT 14/M04 A3027 RMK A01 T01401039  RH  029%=      5-min Rain = 0
KTAT 131905Z 16006KT 14/M04 A3027 RMK A01 T01431040  RH  028%=      5-min Rain = 0
KTAT 131910Z 21006KT 15/M04 A3026 RMK A01 T01451040  RH  028%=      5-min Rain = 0
KTAT 131915Z 18005KT 15/M04 A3026 RMK A01 T01491038  RH  027%=      5-min Rain = 0
KTAT 131920Z 17005G10KT 15/M04 A3025 RMK A01 T01531039  RH  026%=      5-min Rain = 0
KTAT 131925Z 16005G10KT 15/M04 A3025 RMK A01 T01521040  RH  026%=      5-min Rain = 0
KTAT 131930Z 15004KT 16/M04 A3025 RMK A01 T01561039  RH  026%=      5-min Rain = 0
KTAT 131935Z 16004G9KT 16/M04 A3025 RMK A01 T01591038  RH  026%=      5-min Rain = 0
KTAT 131940Z 18006KT 17/M04 A3024 RMK A01 T01661039  RH  024%=      5-min Rain = 0
KTAT 131945Z 16006KT 17/M04 A3024 RMK A01 T01651040  RH  024%=      5-min Rain = 0
KTAT 131950Z 17006KT 17/M04 A3024 RMK A01 T01691037  RH  024%=      5-min Rain = 0
KTAT 131955Z 18006KT 17/M04 A3024 RMK A01 T01701040  RH  023%=      5-min Rain = 0
KTAT 132000Z 20006KT 17/M04 A3024 RMK A01 T01681041  RH  024%=      5-min Rain = 0
KTAT 132005Z 19005KT 17/M04 A3024 RMK A01 T01721040  RH  023%=      5-min Rain = 0
KTAT 132010Z 18006KT 17/M04 A3024 RMK A01 T01741041  RH  023%=      5-min Rain = 0
KTAT 132015Z 19006KT 17/M04 A3023 RMK A01 T01721039  RH  023%=      5-min Rain = 0
KTAT 132020Z 17007KT 18/M04 A3023 RMK A01 T01781038  RH  023%=      5-min Rain = 0
KTAT 132025Z 18008KT 18/M04 A3023 RMK A01 T01831037  RH  022%=      5-min Rain = 0
KTAT 132030Z 18007KT 19/M04 A3023 RMK A01 T01861037  RH  022%=      5-min Rain = 0
KTAT 132035Z 19007KT 19/M04 A3023 RMK A01 T01871039  RH  021%=      5-min Rain = 0
KTAT 132040Z 19007G12KT 19/M04 A3022 RMK A01 T01881038  RH  021%=      5-min Rain = 0
KTAT 132045Z 18008KT 19/M04 A3023 RMK A01 T01921038  RH  021%=      5-min Rain = 0
KTAT 132050Z 17007KT 19/M04 A3023 RMK A01 T01901040  RH  021%=      5-min Rain = 0
KTAT 132055Z 17008KT 19/M04 A3023 RMK A01 T01861042  RH  021%=      5-min Rain = 0
KTAT 132100Z 17008KT 19/M04 A3023 RMK A01 T01851039  RH  022%=      5-min Rain = 0
KTAT 132105Z 18006KT 19/M04 A3023 RMK A01 T01901038  RH  021%=      5-min Rain = 0
KTAT 132110Z 17008KT 19/M04 A3023 RMK A01 T01881039  RH  021%=      5-min Rain = 0
KTAT 132115Z 18010KT 19/M04 A3023 RMK A01 T01921041  RH  020%=      5-min Rain = 0
KTAT 132120Z 19006G11KT 19/M04 A3023 RMK A01 T01861042  RH  021%=      5-min Rain = 0
KTAT 132125Z 18009KT 19/M04 A3023 RMK A01 T01881042  RH  021%=      5-min Rain = 0
KTAT 132130Z 18008KT 19/M04 A3023 RMK A01 T01861043  RH  021%=      5-min Rain = 0
KTAT 132135Z 17006KT 19/M04 A3023 RMK A01 T01881043  RH  021%=      5-min Rain = 0
KTAT 132140Z 16006KT 19/M04 A3022 RMK A01 T01891043  RH  020%=      5-min Rain = 0
KTAT 132145Z 16007KT 19/M04 A3022 RMK A01 T01941042  RH  020%=      5-min Rain = 0
KTAT 132150Z 18008KT 19/M04 A3022 RMK A01 T01921041  RH  020%=      5-min Rain = 0
KTAT 132155Z 16009KT 19/M04 A3021 RMK A01 T01921041  RH  020%=      5-min Rain = 0
KTAT 132200Z 16008G13KT 19/M04 A3021 RMK A01 T01861040  RH  021%=      5-min Rain = 0
KTAT 132205Z 15009KT 19/M04 A3021 RMK A01 T01851039  RH  022%=      5-min Rain = 0
KTAT 132210Z 16009KT 19/M04 A3021 RMK A01 T01861038  RH  022%=      5-min Rain = 0
KTAT 132215Z 17008G13KT 19/M04 A3021 RMK A01 T01901040  RH  021%=      5-min Rain = 0
KTAT 132220Z 15008KT 19/M04 A3022 RMK A01 T01891039  RH  021%=      5-min Rain = 0
KTAT 132225Z 17007G12KT 19/M04 A3022 RMK A01 T01891038  RH  021%=      5-min Rain = 0
KTAT 132230Z 17007KT 19/M04 A3022 RMK A01 T01901038  RH  021%=      5-min Rain = 0
KTAT 132235Z 16007KT 19/M04 A3021 RMK A01 T01901038  RH  021%=      5-min Rain = 0
KTAT 132240Z 17007KT 19/M04 A3022 RMK A01 T01911038  RH  021%=      5-min Rain = 0
KTAT 132245Z 16008KT 19/M04 A3022 RMK A01 T01861038  RH  022%=      5-min Rain = 0
KTAT 132250Z 15007KT 18/M04 A3022 RMK A01 T01821038  RH  022%=      5-min Rain = 0
KTAT 132255Z 17007KT 18/M04 A3022 RMK A01 T01831037  RH  022%=      5-min Rain = 0
KTAT 132300Z 17008KT 19/M04 A3022 RMK A01 T01861037  RH  022%=      5-min Rain = 0
KTAT 132305Z 16009KT 18/M04 A3022 RMK A01 T01841037  RH  022%=      5-min Rain = 0
KTAT 132310Z 17010KT 18/M04 A3022 RMK A01 T01821037  RH  022%=      5-min Rain = 0
KTAT 132315Z 16008KT 18/M04 A3022 RMK A01 T01791036  RH  023%=      5-min Rain = 0
KTAT 132320Z 15009KT 18/M04 A3022 RMK A01 T01751035  RH  024%=      5-min Rain = 0
KTAT 132325Z 16009KT 17/M04 A3022 RMK A01 T01741037  RH  024%=      5-min Rain = 0
KTAT 132330Z 16008KT 17/M04 A3022 RMK A01 T01691037  RH  024%=      5-min Rain = 0
KTAT 132335Z 16009KT 17/M03 A3022 RMK A01 T01681033  RH  025%=      5-min Rain = 0
KTAT 132340Z 16008KT 17/M03 A3022 RMK A01 T01681032  RH  025%=      5-min Rain = 0
KTAT 132345Z 16009KT 17/M03 A3022 RMK A01 T01661032  RH  026%=      5-min Rain = 0
KTAT 132350Z 15008KT 16/M03 A3022 RMK A01 T01631031  RH  026%=      5-min Rain = 0
KTAT 132355Z 15007KT 16/M03 A3022 RMK A01 T01621030  RH  027%=      5-min Rain = 0
KTAT 140000Z 15007KT 16/M03 A3022 RMK A01 T01621030  RH  027%=      5-min Rain = 0
KTAT 140005Z 15007KT 16/M03 A3022 RMK A01 T01591030  RH  027%=      5-min Rain = 0
KTAT 140010Z 15008KT 16/M03 A3022 RMK A01 T01551030  RH  028%=      5-min Rain = 0
KTAT 140015Z 14008KT 15/M03 A3023 RMK A01 T01501031  RH  029%=      5-min Rain = 0
KTAT 140020Z 14008KT 14/M03 A3023 RMK A01 T01401031  RH  031%=      5-min Rain = 0
KTAT 140025Z 14008KT 13/M03 A3022 RMK A01 T01321031  RH  032%=      5-min Rain = 0
KTAT 140030Z 13008KT 13/M03 A3022 RMK A01 T01261031  RH  034%=      5-min Rain = 0
KTAT 140035Z 14008KT 12/M03 A3022 RMK A01 T01191031  RH  035%=      5-min Rain = 0
KTAT 140040Z 14008KT 11/M03 A3023 RMK A01 T01121033  RH  036%=      5-min Rain = 0
KTAT 140045Z 14008KT 10/M03 A3023 RMK A01 T01041032  RH  039%=      5-min Rain = 0
KTAT 140050Z 14009KT 10/M03 A3023 RMK A01 T00971031  RH  041%=      5-min Rain = 0
KTAT 140055Z 14009KT 09/M03 A3023 RMK A01 T00931030  RH  042%=      5-min Rain = 0
KTAT 140100Z 14008KT 09/M03 A3023 RMK A01 T00891029  RH  043%=      5-min Rain = 0
KTAT 140105Z 14008KT 09/M03 A3023 RMK A01 T00861029  RH  044%=      5-min Rain = 0
KTAT 140110Z 14007KT 08/M03 A3023 RMK A01 T00841029  RH  045%=      5-min Rain = 0
KTAT 140115Z 14007KT 08/M03 A3024 RMK A01 T00791031  RH  046%=      5-min Rain = 0
KTAT 140120Z 13006KT 07/M03 A3024 RMK A01 T00741033  RH  047%=      5-min Rain = 0
KTAT 140125Z 13006KT 07/M03 A3024 RMK A01 T00711033  RH  048%=      5-min Rain = 0
KTAT 140130Z 13006KT 07/M03 A3024 RMK A01 T00671034  RH  049%=      5-min Rain = 0
KTAT 140135Z 13006KT 07/M03 A3024 RMK A01 T00661034  RH  049%=      5-min Rain = 0
KTAT 140140Z 13006KT 06/M04 A3024 RMK A01 T00631035  RH  050%=      5-min Rain = 0
KTAT 140145Z 12005KT 06/M03 A3025 RMK A01 T00621033  RH  051%=      5-min Rain = 0
KTAT 140150Z 11004KT 07/M03 A3025 RMK A01 T00691030  RH  049%=      5-min Rain = 0
KTAT 140155Z 12005KT 07/M03 A3025 RMK A01 T00711033  RH  048%=      5-min Rain = 0
KTAT 140200Z 14005KT 07/M03 A3025 RMK A01 T00721030  RH  049%=      5-min Rain = 0
KTAT 140205Z 15007KT 07/M03 A3025 RMK A01 T00691032  RH  049%=      5-min Rain = 0
KTAT 140210Z 15009KT 07/M03 A3025 RMK A01 T00651033  RH  050%=      5-min Rain = 0
KTAT 140215Z 16009KT 07/M03 A3025 RMK A01 T00651030  RH  051%=      5-min Rain = 0
KTAT 140220Z 16009KT 07/M03 A3025 RMK A01 T00651030  RH  051%=      5-min Rain = 0
KTAT 140225Z 16009KT 06/M03 A3025 RMK A01 T00601034  RH  051%=      5-min Rain = 0
KTAT 140230Z 16009KT 05/M04 A3025 RMK A01 T00531036  RH  053%=      5-min Rain = 0
KTAT 140235Z 17007KT 05/M04 A3025 RMK A01 T00511036  RH  054%=      5-min Rain = 0
KTAT 140240Z 16005KT 05/M04 A3025 RMK A01 T00501036  RH  054%=      5-min Rain = 0
KTAT 140245Z 16004KT 05/M04 A3026 RMK A01 T00491035  RH  055%=      5-min Rain = 0
KTAT 140250Z 17004KT 05/M03 A3026 RMK A01 T00491034  RH  055%=      5-min Rain = 0
KTAT 140255Z 16006KT 05/M04 A3026 RMK A01 T00481036  RH  055%=      5-min Rain = 0
KTAT 140300Z 17007KT 05/M04 A3026 RMK A01 T00471036  RH  055%=      5-min Rain = 0
KTAT 140305Z 17008KT 04/M04 A3026 RMK A01 T00441037  RH  056%=      5-min Rain = 0
KTAT 140310Z 18007KT 04/M04 A3026 RMK A01 T00381039  RH  057%=      5-min Rain = 0
KTAT 140315Z 18007KT 04/M04 A3026 RMK A01 T00361039  RH  058%=      5-min Rain = 0
KTAT 140320Z 19007KT 04/M04 A3027 RMK A01 T00371038  RH  058%=      5-min Rain = 0
KTAT 140325Z 20005KT 04/M04 A3027 RMK A01 T00361041  RH  057%=      5-min Rain = 0
KTAT 140330Z 21004KT 03/M04 A3027 RMK A01 T00321044  RH  058%=      5-min Rain = 0
KTAT 140335Z 20005KT 03/M04 A3027 RMK A01 T00281044  RH  059%=      5-min Rain = 0
KTAT 140340Z 21006KT 03/M04 A3027 RMK A01 T00271044  RH  060%=      5-min Rain = 0
KTAT 140345Z 20007KT 03/M04 A3027 RMK A01 T00261044  RH  060%=      5-min Rain = 0
KTAT 140350Z 20007KT 03/M04 A3027 RMK A01 T00281042  RH  060%=      5-min Rain = 0
KTAT 140355Z 20007KT 03/M04 A3027 RMK A01 T00311041  RH  060%=      5-min Rain = 0
KTAT 140400Z 20008KT 03/M04 A3027 RMK A01 T00301040  RH  060%=      5-min Rain = 0
KTAT 140405Z 20007KT 03/M04 A3027 RMK A01 T00301040  RH  060%=      5-min Rain = 0
KTAT 140410Z 21008KT 03/M04 A3027 RMK A01 T00291040  RH  061%=      5-min Rain = 0
KTAT 140415Z 21007KT 03/M04 A3027 RMK A01 T00301039  RH  061%=      5-min Rain = 0
KTAT 140420Z 20006KT 03/M04 A3026 RMK A01 T00311038  RH  060%=      5-min Rain = 0
KTAT 140425Z 20007KT 03/M04 A3026 RMK A01 T00341037  RH  060%=      5-min Rain = 0
KTAT 140430Z 20008KT 03/M04 A3026 RMK A01 T00341040  RH  059%=      5-min Rain = 0
KTAT 140435Z 21009KT 03/M04 A3026 RMK A01 T00301040  RH  060%=      5-min Rain = 0
KTAT 140440Z 20009KT 03/M04 A3026 RMK A01 T00311038  RH  061%=      5-min Rain = 0
KTAT 140445Z 20009KT 03/M04 A3026 RMK A01 T00311039  RH  060%=      5-min Rain = 0
KTAT 140450Z 20008KT 03/M04 A3026 RMK A01 T00301039  RH  061%=      5-min Rain = 0
KTAT 140455Z 20007KT 03/M04 A3026 RMK A01 T00301038  RH  061%=      5-min Rain = 0
KTAT 140500Z 21006KT 03/M04 A3026 RMK A01 T00341036  RH  061%=      5-min Rain = 0
KTAT 140505Z 21006KT 03/M04 A3026 RMK A01 T00341037  RH  060%=      5-min Rain = 0
KTAT 140510Z 21006KT 03/M04 A3026 RMK A01 T00341037  RH  060%=      5-min Rain = 0
KTAT 140515Z 22005KT 03/M04 A3026 RMK A01 T00331038  RH  060%=      5-min Rain = 0
KTAT 140520Z 22006KT 03/M04 A3026 RMK A01 T00321037  RH  061%=      5-min Rain = 0
KTAT 140525Z 22006KT 03/M04 A3026 RMK A01 T00341036  RH  060%=      5-min Rain = 0
KTAT 140530Z 22006KT 03/M04 A3026 RMK A01 T00341037  RH  060%=      5-min Rain = 0
KTAT 140535Z 23005KT 03/M04 A3026 RMK A01 T00331038  RH  060%=      5-min Rain = 0
KTAT 140540Z 24006KT 03/M04 A3026 RMK A01 T00311038  RH  060%=      5-min Rain = 0
KTAT 140545Z 23006KT 03/M04 A3026 RMK A01 T00311039  RH  060%=      5-min Rain = 0
KTAT 140550Z 22006KT 03/M04 A3026 RMK A01 T00301040  RH  060%=      5-min Rain = 0
KTAT 140555Z 22007KT 03/M04 A3026 RMK A01 T00281042  RH  060%=      5-min Rain = 0

Page generated in 0.0137 seconds.